Sredna Gora — LZLO — position and weather

sailwx.info

Track history (hours):
 
Tides and Currents Weather Stations Pressure Air Temp Water Temp Dewpoint Dewpoint Depression Visibility Wind Speed Wind Dir Waves Ship Positions

Sredna Gora

Last reported at 2018-Jan-27 14:49 UTC. Time now 2018-Feb-25 10:07 UTC.
Position N 44°32' E 022°13'.
Warning: this ship's position is 28 days out of date.

; draft 20 m.

Type: Wing in ground effect craft. MMSI: 207261215.

Date/timePositionNaut miles runAvg speedWind from/ knotsBaromVisibWave heightAir tempDewpointWater temp
2018-Jan-27 14:49N 44°32' E 022°13'2 7.3
2018-Jan-27 14:31N 44°30' E 022°12'3 6.1
2018-Jan-27 14:01N 44°29' E 022°08'4 7.1
2018-Jan-27 13:31N 44°31' E 022°04'4 7.1
2018-Jan-27 13:00N 44°34' E 022°02'15 6.7
2018-Jan-27 10:46N 44°40' E 021°42'2 6.9
2018-Jan-27 10:31N 44°41' E 021°40'3 6.9
2018-Jan-27 10:01N 44°43' E 021°37'4 7.3
2018-Jan-27 09:30N 44°46' E 021°33'2 3.4
2018-Jan-27 08:57N 44°46' E 021°31'0 0.4
2018-Jan-27 08:26N 44°46' E 021°31'0 0.0
2018-Jan-27 07:50N 44°46' E 021°31'0 0.0
2018-Jan-27 07:27N 44°46' E 021°31'0 0.0
2018-Jan-27 06:49N 44°46' E 021°31'0 0.7
2018-Jan-27 06:30N 44°46' E 021°31'2 4.0
2018-Jan-27 06:00N 44°47' E 021°28'12 5.5
2018-Jan-27 03:54N 44°46' E 021°12'3 7.2
2018-Jan-27 03:27N 44°44' E 021°08'3 7.4
2018-Jan-27 03:00N 44°43' E 021°04'3 6.9
2018-Jan-27 02:29N 44°43' E 020°59'4 7.4
2018-Jan-27 01:57N 44°40' E 020°54'5 7.5
2018-Jan-27 01:20N 44°39' E 020°48'4 7.2
2018-Jan-27 00:45N 44°41' E 020°43'3 7.3
2018-Jan-27 00:23N 44°44' E 020°41'3 7.4
2018-Jan-27 00:00N 44°46' E 020°38'3 7.1
2018-Jan-26 23:30N 44°49' E 020°39'3 6.5
2018-Jan-26 23:00N 44°51' E 020°35'4 7.4
2018-Jan-26 22:30N 44°50' E 020°31'4 7.8
2018-Jan-26 22:00N 44°51' E 020°25'4 7.7
2018-Jan-26 21:30N 44°53' E 020°21'4 7.9
2018-Jan-26 21:01N 44°57' E 020°18'3 6.3
2018-Jan-26 20:30N 44°60' E 020°18'3 6.1
2018-Jan-26 20:00N 45°02' E 020°22'5 7.7
2018-Jan-26 19:24N 45°06' E 020°18'3 6.2
2018-Jan-26 18:58N 45°08' E 020°17'3 7.2
2018-Jan-26 18:30N 45°10' E 020°13'4 8.4
2018-Jan-26 17:58N 45°10' E 020°07'3 6.6
2018-Jan-26 17:31N 45°10' E 020°02'4 8.6
2018-Jan-26 17:00N 45°12' E 019°57'3 6.6
2018-Jan-26 16:29N 45°15' E 019°54'0 0.0
2018-Jan-26 15:58N 45°15' E 019°54'0 0.1
2018-Jan-26 15:27N 45°15' E 019°54'1 1.3
2018-Jan-26 14:58N 45°15' E 019°54'1 1.2
2018-Jan-26 14:26N 45°15' E 019°54'0 0.9
2018-Jan-26 14:00N 45°15' E 019°54'1 1.6
2018-Jan-26 13:07N 45°16' E 019°52'0 2.2
2018-Jan-26 12:59N 45°16' E 019°52'3 5.0
2018-Jan-26 12:26N 45°14' E 019°50'2 4.1
2018-Jan-26 12:00N 45°15' E 019°52'1 1.6
2018-Jan-26 11:30N 45°15' E 019°51'0 0.0
2018-Jan-26 10:44N 45°15' E 019°51'0 0.0
2018-Jan-26 09:31N 45°15' E 019°51'0 0.0
2018-Jan-26 09:29N 45°15' E 019°51'0 0.0
2018-Jan-26 08:46N 45°15' E 019°51'0 0.0
2018-Jan-26 08:22N 45°15' E 019°51'0 0.0
2018-Jan-26 07:46N 45°15' E 019°51'0 0.0
2018-Jan-26 07:16N 45°15' E 019°51'0 0.0
2018-Jan-26 06:46N 45°15' E 019°51'0 0.0
2018-Jan-26 06:29N 45°15' E 019°51'0 0.0
2018-Jan-26 05:58N 45°15' E 019°51'0 0.0
2018-Jan-26 04:56N 45°15' E 019°51'0 0.0
2018-Jan-26 04:25N 45°15' E 019°51'0 0.0
2018-Jan-26 03:58N 45°15' E 019°51'0 0.0
2018-Jan-26 03:28N 45°15' E 019°51'0 0.0
2018-Jan-26 02:55N 45°15' E 019°51'0 0.0
2018-Jan-26 02:11N 45°15' E 019°51'0 0.0
2018-Jan-26 01:58N 45°15' E 019°51'0 0.0
2018-Jan-26 01:24N 45°15' E 019°51'0 0.0
2018-Jan-26 01:00N 45°15' E 019°51'0 0.0
2018-Jan-26 00:30N 45°15' E 019°51'0 0.0
2018-Jan-25 23:55N 45°15' E 019°51'0 0.0
2018-Jan-25 23:28N 45°15' E 019°51'0 0.0
2018-Jan-25 23:00N 45°15' E 019°51'0 0.0
2018-Jan-25 22:30N 45°15' E 019°51'0 0.0
2018-Jan-25 22:00N 45°15' E 019°51'0 0.0
2018-Jan-25 21:29N 45°15' E 019°51'0 0.0
2018-Jan-25 20:59N 45°15' E 019°51'0 0.0
2018-Jan-25 20:29N 45°15' E 019°51'0 0.0
2018-Jan-25 19:12N 45°15' E 019°51'0 0.0
2018-Jan-25 18:56N 45°15' E 019°51'0 0.0
2018-Jan-25 18:08N 45°15' E 019°51'0 0.0
2018-Jan-25 17:59N 45°15' E 019°51'0 0.0
2018-Jan-25 17:26N 45°15' E 019°51'0 0.0
2018-Jan-25 16:59N 45°15' E 019°51'0 0.0
2018-Jan-25 16:29N 45°15' E 019°51'0 0.0
2018-Jan-25 15:55N 45°15' E 019°51'1 2.8
2018-Jan-25 15:28N 45°16' E 019°53'1 1.6
2018-Jan-25 14:50N 45°16' E 019°52'3 6.8
2018-Jan-25 14:26N 45°14' E 019°50'1 1.6
2018-Jan-25 13:57N 45°14' E 019°51'2 3.0
2018-Jan-25 13:14N 45°16' E 019°52'0 1.7
2018-Jan-25 13:00N 45°16' E 019°51'0 0.1
2018-Jan-25 12:02N 45°16' E 019°51'0 0.0
2018-Jan-25 11:50N 45°16' E 019°51'0 0.0
2018-Jan-25 11:26N 45°16' E 019°51'0 0.0
2018-Jan-25 10:57N 45°16' E 019°51'1 1.4
2018-Jan-25 10:21N 45°15' E 019°51'0 0.0
2018-Jan-25 09:57N 45°15' E 019°51'1 2.1
2018-Jan-25 09:24N 45°14' E 019°51'1 1.1
2018-Jan-25 08:19N 45°15' E 019°51'0 0.0
2018-Jan-25 07:59N 45°15' E 019°51'0 0.5
2018-Jan-25 07:23N 45°15' E 019°51'2 5.6
2018-Jan-25 07:00N 45°13' E 019°50'2 3.9
2018-Jan-25 06:30N 45°13' E 019°47'4 8.5
2018-Jan-25 06:00N 45°14' E 019°41'0 0.3
2018-Jan-25 05:25N 45°14' E 019°41'0 0.0
2018-Jan-25 04:55N 45°14' E 019°41'0 0.0
2018-Jan-25 04:28N 45°14' E 019°41'0 0.0
2018-Jan-25 03:58N 45°14' E 019°41'0 0.0
2018-Jan-25 03:25N 45°14' E 019°41'0 0.0
2018-Jan-25 02:58N 45°14' E 019°41'0 0.0
2018-Jan-25 02:25N 45°14' E 019°41'0 0.0
2018-Jan-25 01:58N 45°14' E 019°41'0 0.0
2018-Jan-25 01:28N 45°14' E 019°41'0 0.0
2018-Jan-25 00:58N 45°14' E 019°41'0 0.0
2018-Jan-25 00:29N 45°14' E 019°41'0 0.0
2018-Jan-24 23:43N 45°14' E 019°41'0 0.0
2018-Jan-24 23:22N 45°14' E 019°41'0 0.0
2018-Jan-24 22:51N 45°14' E 019°41'0 0.0
2018-Jan-24 22:29N 45°14' E 019°41'0 0.0
2018-Jan-24 21:28N 45°14' E 019°41'0 0.0
2018-Jan-24 20:55N 45°14' E 019°41'0 0.0
2018-Jan-24 20:28N 45°14' E 019°41'0 0.0
2018-Jan-24 19:46N 45°14' E 019°41'0 0.0
2018-Jan-24 19:07N 45°14' E 019°41'0 0.0
2018-Jan-24 19:00N 45°14' E 019°41'0 0.0
2018-Jan-24 18:17N 45°14' E 019°41'0 0.0
2018-Jan-24 17:52N 45°14' E 019°41'0 0.0
2018-Jan-24 17:28N 45°14' E 019°41'0 0.8
2018-Jan-24 17:01N 45°13' E 019°40'4 8.3
2018-Jan-24 16:30N 45°13' E 019°34'3 6.6
2018-Jan-24 15:59N 45°15' E 019°30'4 9.1
2018-Jan-24 15:31N 45°14' E 019°24'5 9.0
2018-Jan-24 15:00N 45°14' E 019°18'5 9.4
2018-Jan-24 14:31N 45°16' E 019°11'4 8.9
2018-Jan-24 14:01N 45°18' E 019°06'4 7.2
2018-Jan-24 13:29N 45°21' E 019°02'2 4.4
2018-Jan-24 12:59N 45°22' E 018°59'0 0.1
2018-Jan-24 12:25N 45°22' E 018°59'0 0.5
2018-Jan-24 11:58N 45°22' E 018°59'0 0.0
2018-Jan-24 11:28N 45°22' E 018°59'0 0.0
2018-Jan-24 10:58N 45°22' E 018°59'0 0.0
2018-Jan-24 10:28N 45°22' E 018°59'0 0.0
2018-Jan-24 09:58N 45°22' E 018°59'0 0.0
2018-Jan-24 09:28N 45°22' E 018°59'0 0.0
2018-Jan-24 08:58N 45°22' E 018°59'0 0.0
2018-Jan-24 08:28N 45°22' E 018°59'0 0.0
2018-Jan-24 07:58N 45°22' E 018°59'0 0.0
2018-Jan-24 07:28N 45°22' E 018°59'0 0.0
2018-Jan-24 06:58N 45°22' E 018°59'0 0.0
2018-Jan-24 06:28N 45°22' E 018°59'0 0.0
2018-Jan-24 05:58N 45°22' E 018°59'0 0.0
2018-Jan-24 05:28N 45°22' E 018°59'0 0.0
2018-Jan-24 04:58N 45°22' E 018°59'0 0.0
2018-Jan-24 04:28N 45°22' E 018°59'0 0.0
2018-Jan-24 03:58N 45°22' E 018°59'0 0.0
2018-Jan-24 03:25N 45°22' E 018°59'0 0.0
2018-Jan-24 02:58N 45°22' E 018°59'0 0.0
2018-Jan-24 02:28N 45°22' E 018°59'0 0.0
2018-Jan-24 01:58N 45°22' E 018°59'0 0.0
2018-Jan-24 01:28N 45°22' E 018°59'0 0.0
2018-Jan-24 00:58N 45°22' E 018°59'0 0.0
2018-Jan-24 00:28N 45°22' E 018°59'0 0.0
2018-Jan-23 23:58N 45°22' E 018°59'0 0.0
2018-Jan-23 23:28N 45°22' E 018°59'0 0.0
2018-Jan-23 22:58N 45°22' E 018°59'0 0.0
2018-Jan-23 22:28N 45°22' E 018°59'0 0.0
2018-Jan-23 21:58N 45°22' E 018°59'0 0.0
2018-Jan-23 21:28N 45°22' E 018°59'0 0.0
2018-Jan-23 20:58N 45°22' E 018°59'0 0.0
2018-Jan-23 20:28N 45°22' E 018°59'0 0.0
2018-Jan-23 19:58N 45°22' E 018°59'0 0.0
2018-Jan-23 19:28N 45°22' E 018°59'0 0.0
2018-Jan-23 18:58N 45°22' E 018°59'0 0.0
2018-Jan-23 18:25N 45°22' E 018°59'0 0.0
2018-Jan-23 17:58N 45°22' E 018°59'0 0.0
2018-Jan-23 17:28N 45°22' E 018°59'0 0.0
2018-Jan-23 16:58N 45°22' E 018°59'0 0.0
2018-Jan-23 16:28N 45°22' E 018°59'0 0.0
2018-Jan-23 15:55N 45°22' E 018°59'0 0.0
2018-Jan-23 15:25N 45°22' E 018°59'0 0.0
2018-Jan-23 14:58N 45°22' E 018°59'0 0.0
2018-Jan-23 14:07N 45°22' E 018°59'0 0.0
2018-Jan-23 13:49N 45°22' E 018°59'0 0.0
2018-Jan-23 13:28N 45°22' E 018°59'0 0.0
2018-Jan-23 12:55N 45°22' E 018°59'0 0.0
2018-Jan-23 12:28N 45°22' E 018°59'0 0.0
2018-Jan-23 11:55N 45°22' E 018°59'0 0.0
2018-Jan-23 11:28N 45°22' E 018°59'0 0.0
2018-Jan-23 10:58N 45°22' E 018°59'0 0.0
2018-Jan-23 10:28N 45°22' E 018°59'0 0.0
2018-Jan-23 09:58N 45°22' E 018°59'0 0.0
2018-Jan-23 09:28N 45°22' E 018°59'0 0.0
2018-Jan-23 08:58N 45°22' E 018°59'0 0.0
2018-Jan-23 08:28N 45°22' E 018°59'0 0.0
2018-Jan-23 07:58N 45°22' E 018°59'0 0.0
2018-Jan-23 07:28N 45°22' E 018°59'0 0.0
2018-Jan-23 06:58N 45°22' E 018°59'0 0.0
2018-Jan-23 06:31N 45°22' E 018°59'0 0.0
2018-Jan-23 06:01N 45°22' E 018°59'0 0.0
2018-Jan-23 05:31N 45°22' E 018°59'0 0.0
2018-Jan-23 05:01N 45°22' E 018°59'0 0.0
2018-Jan-23 04:31N 45°22' E 018°59'0 0.0
2018-Jan-23 04:01N 45°22' E 018°59'0 0.0
2018-Jan-23 03:31N 45°22' E 018°59'0 0.0
2018-Jan-23 03:01N 45°22' E 018°59'0 0.0
2018-Jan-23 02:31N 45°22' E 018°59'0 0.0
2018-Jan-23 02:01N 45°22' E 018°59'0 0.0
2018-Jan-23 01:31N 45°22' E 018°59'0 0.0
2018-Jan-23 01:01N 45°22' E 018°59'0 0.0
2018-Jan-23 00:31N 45°22' E 018°59'0 0.0
2018-Jan-23 00:01N 45°22' E 018°59'0 0.0
2018-Jan-22 23:31N 45°22' E 018°59'0 0.0
2018-Jan-22 23:01N 45°22' E 018°59'0 0.0
2018-Jan-22 22:31N 45°22' E 018°59'0 0.0
2018-Jan-22 22:01N 45°22' E 018°59'0 0.0
2018-Jan-22 21:31N 45°22' E 018°59'0 0.0
2018-Jan-22 21:01N 45°22' E 018°59'0 0.0
2018-Jan-22 20:31N 45°22' E 018°59'0 0.0
2018-Jan-22 20:01N 45°22' E 018°59'0 0.0
2018-Jan-22 19:31N 45°22' E 018°59'0 0.0
2018-Jan-22 19:01N 45°22' E 018°59'0 0.0
2018-Jan-22 18:30N 45°22' E 018°59'0 0.0
2018-Jan-22 18:00N 45°22' E 018°59'0 0.5
2018-Jan-22 17:31N 45°22' E 018°59'1 2.2
2018-Jan-22 17:00N 45°23' E 018°58'4 7.2
2018-Jan-22 16:31N 45°25' E 019°02'4 8.2
2018-Jan-22 16:01N 45°29' E 018°60'4 8.3
2018-Jan-22 15:31N 45°30' E 019°06'4 7.6
2018-Jan-22 15:01N 45°32' E 019°02'4 7.2
2018-Jan-22 14:30N 45°32' E 018°57'4 7.4
2018-Jan-22 14:01N 45°35' E 018°54'4 8.1
2018-Jan-22 13:30N 45°39' E 018°57'4 7.3
2018-Jan-22 13:00N 45°42' E 018°55'5 9.6
2018-Jan-22 12:31N 45°47' E 018°53'4 8.2
2018-Jan-22 12:00N 45°51' E 018°51'5 8.9
2018-Jan-22 11:30N 45°55' E 018°48'6 9.5
2018-Jan-22 10:54N 45°59' E 018°43'2 4.0
2018-Jan-22 10:22N 46°01' E 018°41'0 0.0
2018-Jan-22 09:43N 46°01' E 018°41'0 0.0
2018-Jan-22 09:18N 46°01' E 018°41'0 0.0
2018-Jan-22 08:46N 46°01' E 018°41'0 0.0
2018-Jan-22 08:23N 46°01' E 018°41'0 0.0
2018-Jan-22 07:58N 46°01' E 018°41'0 0.0
2018-Jan-22 07:08N 46°01' E 018°41'0 0.0
2018-Jan-22 07:00N 46°01' E 018°41'75 1.7
2018-Jan-20 10:59N 47°15' E 018°55'5 9.8
2018-Jan-20 10:30N 47°20' E 018°57'4 8.6
2018-Jan-20 09:59N 47°23' E 019°00'3 6.9
2018-Jan-20 09:30N 47°26' E 019°03'1 1.3
2018-Jan-20 09:00N 47°27' E 019°03'0 0.4
2018-Jan-20 08:11N 47°27' E 019°04'0 0.0
2018-Jan-20 07:59N 47°27' E 019°04'0 0.0
2018-Jan-20 07:17N 47°27' E 019°04'0 0.0
2018-Jan-20 06:41N 47°27' E 019°04'0 0.0
2018-Jan-20 06:17N 47°27' E 019°04'0 0.0
2018-Jan-20 05:53N 47°27' E 019°04'0 0.0
2018-Jan-20 05:29N 47°27' E 019°04'0 0.0
2018-Jan-20 04:53N 47°27' E 019°04'0 0.0
2018-Jan-20 04:29N 47°27' E 019°04'0 0.0
2018-Jan-20 03:53N 47°27' E 019°04'0 0.0
2018-Jan-20 03:29N 47°27' E 019°04'0 0.0
2018-Jan-20 02:59N 47°27' E 019°04'0 0.0
2018-Jan-20 02:29N 47°27' E 019°04'0 0.0
2018-Jan-20 01:53N 47°27' E 019°04'0 0.0
2018-Jan-20 01:29N 47°27' E 019°04'0 0.0
2018-Jan-20 00:59N 47°27' E 019°04'0 0.0
2018-Jan-20 00:29N 47°27' E 019°04'0 0.0
2018-Jan-19 23:59N 47°27' E 019°04'0 0.0
2018-Jan-19 23:29N 47°27' E 019°04'0 0.0
2018-Jan-19 22:53N 47°27' E 019°04'0 0.0
2018-Jan-19 22:29N 47°27' E 019°04'0 0.1
2018-Jan-19 21:53N 47°27' E 019°04'0 0.0
2018-Jan-19 21:13N 47°27' E 019°04'0 0.0
2018-Jan-19 20:53N 47°27' E 019°04'0 0.0
2018-Jan-19 20:25N 47°27' E 019°04'0 0.0
2018-Jan-19 19:44N 47°27' E 019°04'0 0.0
2018-Jan-19 19:23N 47°27' E 019°04'0 0.0
2018-Jan-19 18:59N 47°27' E 019°04'0 0.0
2018-Jan-19 18:29N 47°27' E 019°04'0 0.0
2018-Jan-19 17:47N 47°27' E 019°04'0 0.0
2018-Jan-19 17:11N 47°27' E 019°04'0 0.0
2018-Jan-19 16:59N 47°27' E 019°04'0 0.0
2018-Jan-19 16:23N 47°27' E 019°04'0 0.0
2018-Jan-19 15:55N 47°27' E 019°04'0 0.1
2018-Jan-19 15:23N 47°27' E 019°04'0 0.0
2018-Jan-19 14:53N 47°27' E 019°04'0 0.0
2018-Jan-19 14:26N 47°27' E 019°04'0 0.1
2018-Jan-19 13:43N 47°27' E 019°04'0 0.0
2018-Jan-19 12:43N 47°27' E 019°04'0 0.0
2018-Jan-19 12:22N 47°27' E 019°04'0 0.0
2018-Jan-19 11:58N 47°27' E 019°04'0 0.0
2018-Jan-19 11:19N 47°27' E 019°04'0 0.2
2018-Jan-19 10:55N 47°27' E 019°04'0 0.0
2018-Jan-19 10:25N 47°27' E 019°04'0 0.0
2018-Jan-19 09:58N 47°27' E 019°04'0 0.0
2018-Jan-19 09:25N 47°27' E 019°04'0 0.0
2018-Jan-19 08:49N 47°27' E 019°04'0 0.0
2018-Jan-19 08:28N 47°27' E 019°04'0 0.0
2018-Jan-19 07:58N 47°27' E 019°04'0 0.0
2018-Jan-19 07:22N 47°27' E 019°04'0 0.0
2018-Jan-19 06:52N 47°27' E 019°04'0 0.0
2018-Jan-19 06:22N 47°27' E 019°04'0 0.0
2018-Jan-19 05:55N 47°27' E 019°04'0 0.0
2018-Jan-19 05:19N 47°27' E 019°04'0 0.0
2018-Jan-19 04:55N 47°27' E 019°04'0 0.0
2018-Jan-19 04:22N 47°27' E 019°04'0 0.0
2018-Jan-19 03:58N 47°27' E 019°04'0 0.0
2018-Jan-19 03:25N 47°27' E 019°04'0 0.0
2018-Jan-19 02:52N 47°27' E 019°04'0 0.0
2018-Jan-19 02:25N 47°27' E 019°04'0 0.0
2018-Jan-19 01:58N 47°27' E 019°04'0 0.0
2018-Jan-19 01:25N 47°27' E 019°04'0 0.0
2018-Jan-19 00:52N 47°27' E 019°04'0 0.0
2018-Jan-19 00:22N 47°27' E 019°04'0 0.0
2018-Jan-18 22:07N 47°27' E 019°04'0 0.0
2018-Jan-18 21:55N 47°27' E 019°04'0 0.0
2018-Jan-18 21:25N 47°27' E 019°04'0 0.0
2018-Jan-18 20:55N 47°27' E 019°04'0 0.0
2018-Jan-18 20:25N 47°27' E 019°04'0 0.0
2018-Jan-18 19:55N 47°27' E 019°04'0 0.0
2018-Jan-18 19:28N 47°27' E 019°04'0 0.0
2018-Jan-18 18:55N 47°27' E 019°04'0 0.0
2018-Jan-18 18:28N 47°27' E 019°04'0 0.0
2018-Jan-18 17:58N 47°27' E 019°04'0 0.0
2018-Jan-18 17:10N 47°27' E 019°04'0 0.0
2018-Jan-18 16:49N 47°27' E 019°04'0 0.0
2018-Jan-18 16:28N 47°27' E 019°04'0 0.0
2018-Jan-18 15:55N 47°27' E 019°04'0 0.0
2018-Jan-18 15:28N 47°27' E 019°04'0 0.0
2018-Jan-18 14:55N 47°27' E 019°04'0 0.0
2018-Jan-18 14:28N 47°27' E 019°04'0 0.0
2018-Jan-18 13:58N 47°27' E 019°04'0 0.0
2018-Jan-18 13:28N 47°27' E 019°04'0 0.0
2018-Jan-18 12:49N 47°27' E 019°04'0 0.0
2018-Jan-18 12:30N 47°27' E 019°04'0 0.0
2018-Jan-18 12:00N 47°27' E 019°04'1 1.8
2018-Jan-18 11:30N 47°26' E 019°03'0 0.3
2018-Jan-18 11:00N 47°26' E 019°03'2 4.5
2018-Jan-18 10:30N 47°24' E 019°02'3 5.5
2018-Jan-18 10:00N 47°23' E 018°58'3 4.9
2018-Jan-18 09:29N 47°20' E 018°57'3 5.0
2018-Jan-18 08:49N 47°17' E 018°55'1 4.5
2018-Jan-18 08:30N 47°16' E 018°55'  
Track history (hours):
 
Tides and Currents Weather Stations Pressure Air Temp Water Temp Dewpoint Dewpoint Depression Visibility Wind Speed Wind Dir Waves Ship Positions

Sredna Gora

Last reported at 2018-Jan-27 14:49 UTC. Time now 2018-Feb-25 10:07 UTC.
Position N 44°32' E 022°13'.
Warning: this ship's position is 28 days out of date.

; draft 20 m.

Type: Wing in ground effect craft. MMSI: 207261215.

Date/timePositionNaut miles runAvg speedWind from/ knotsBaromVisibWave heightAir tempDewpointWater temp
2018-Jan-27 14:49N 44°32' E 022°13'2 7.3
2018-Jan-27 14:31N 44°30' E 022°12'3 6.1
2018-Jan-27 14:01N 44°29' E 022°08'4 7.1
2018-Jan-27 13:31N 44°31' E 022°04'4 7.1
2018-Jan-27 13:00N 44°34' E 022°02'15 6.7
2018-Jan-27 10:46N 44°40' E 021°42'2 6.9
2018-Jan-27 10:31N 44°41' E 021°40'3 6.9
2018-Jan-27 10:01N 44°43' E 021°37'4 7.3
2018-Jan-27 09:30N 44°46' E 021°33'2 3.4
2018-Jan-27 08:57N 44°46' E 021°31'0 0.4
2018-Jan-27 08:26N 44°46' E 021°31'0 0.0
2018-Jan-27 07:50N 44°46' E 021°31'0 0.0
2018-Jan-27 07:27N 44°46' E 021°31'0 0.0
2018-Jan-27 06:49N 44°46' E 021°31'0 0.7
2018-Jan-27 06:30N 44°46' E 021°31'2 4.0
2018-Jan-27 06:00N 44°47' E 021°28'12 5.5
2018-Jan-27 03:54N 44°46' E 021°12'3 7.2
2018-Jan-27 03:27N 44°44' E 021°08'3 7.4
2018-Jan-27 03:00N 44°43' E 021°04'3 6.9
2018-Jan-27 02:29N 44°43' E 020°59'4 7.4
2018-Jan-27 01:57N 44°40' E 020°54'5 7.5
2018-Jan-27 01:20N 44°39' E 020°48'4 7.2
2018-Jan-27 00:45N 44°41' E 020°43'3 7.3
2018-Jan-27 00:23N 44°44' E 020°41'3 7.4
2018-Jan-27 00:00N 44°46' E 020°38'3 7.1
2018-Jan-26 23:30N 44°49' E 020°39'3 6.5
2018-Jan-26 23:00N 44°51' E 020°35'4 7.4
2018-Jan-26 22:30N 44°50' E 020°31'4 7.8
2018-Jan-26 22:00N 44°51' E 020°25'4 7.7
2018-Jan-26 21:30N 44°53' E 020°21'4 7.9
2018-Jan-26 21:01N 44°57' E 020°18'3 6.3
2018-Jan-26 20:30N 44°60' E 020°18'3 6.1
2018-Jan-26 20:00N 45°02' E 020°22'5 7.7
2018-Jan-26 19:24N 45°06' E 020°18'3 6.2
2018-Jan-26 18:58N 45°08' E 020°17'3 7.2
2018-Jan-26 18:30N 45°10' E 020°13'4 8.4
2018-Jan-26 17:58N 45°10' E 020°07'3 6.6
2018-Jan-26 17:31N 45°10' E 020°02'4 8.6
2018-Jan-26 17:00N 45°12' E 019°57'3 6.6
2018-Jan-26 16:29N 45°15' E 019°54'0 0.0
2018-Jan-26 15:58N 45°15' E 019°54'0 0.1
2018-Jan-26 15:27N 45°15' E 019°54'1 1.3
2018-Jan-26 14:58N 45°15' E 019°54'1 1.2
2018-Jan-26 14:26N 45°15' E 019°54'0 0.9
2018-Jan-26 14:00N 45°15' E 019°54'1 1.6
2018-Jan-26 13:07N 45°16' E 019°52'0 2.2
2018-Jan-26 12:59N 45°16' E 019°52'3 5.0
2018-Jan-26 12:26N 45°14' E 019°50'2 4.1
2018-Jan-26 12:00N 45°15' E 019°52'1 1.6
2018-Jan-26 11:30N 45°15' E 019°51'0 0.0
2018-Jan-26 10:44N 45°15' E 019°51'0 0.0
2018-Jan-26 09:31N 45°15' E 019°51'0 0.0
2018-Jan-26 09:29N 45°15' E 019°51'0 0.0
2018-Jan-26 08:46N 45°15' E 019°51'0 0.0
2018-Jan-26 08:22N 45°15' E 019°51'0 0.0
2018-Jan-26 07:46N 45°15' E 019°51'0 0.0
2018-Jan-26 07:16N 45°15' E 019°51'0 0.0
2018-Jan-26 06:46N 45°15' E 019°51'0 0.0
2018-Jan-26 06:29N 45°15' E 019°51'0 0.0
2018-Jan-26 05:58N 45°15' E 019°51'0 0.0
2018-Jan-26 04:56N 45°15' E 019°51'0 0.0
2018-Jan-26 04:25N 45°15' E 019°51'0 0.0
2018-Jan-26 03:58N 45°15' E 019°51'0 0.0
2018-Jan-26 03:28N 45°15' E 019°51'0 0.0
2018-Jan-26 02:55N 45°15' E 019°51'0 0.0
2018-Jan-26 02:11N 45°15' E 019°51'0 0.0
2018-Jan-26 01:58N 45°15' E 019°51'0 0.0
2018-Jan-26 01:24N 45°15' E 019°51'0 0.0
2018-Jan-26 01:00N 45°15' E 019°51'0 0.0
2018-Jan-26 00:30N 45°15' E 019°51'0 0.0
2018-Jan-25 23:55N 45°15' E 019°51'0 0.0
2018-Jan-25 23:28N 45°15' E 019°51'0 0.0
2018-Jan-25 23:00N 45°15' E 019°51'0 0.0
2018-Jan-25 22:30N 45°15' E 019°51'0 0.0
2018-Jan-25 22:00N 45°15' E 019°51'0 0.0
2018-Jan-25 21:29N 45°15' E 019°51'0 0.0
2018-Jan-25 20:59N 45°15' E 019°51'0 0.0
2018-Jan-25 20:29N 45°15' E 019°51'0 0.0
2018-Jan-25 19:12N 45°15' E 019°51'0 0.0
2018-Jan-25 18:56N 45°15' E 019°51'0 0.0
2018-Jan-25 18:08N 45°15' E 019°51'0 0.0
2018-Jan-25 17:59N 45°15' E 019°51'0 0.0
2018-Jan-25 17:26N 45°15' E 019°51'0 0.0
2018-Jan-25 16:59N 45°15' E 019°51'0 0.0
2018-Jan-25 16:29N 45°15' E 019°51'0 0.0
2018-Jan-25 15:55N 45°15' E 019°51'1 2.8
2018-Jan-25 15:28N 45°16' E 019°53'1 1.6
2018-Jan-25 14:50N 45°16' E 019°52'3 6.8
2018-Jan-25 14:26N 45°14' E 019°50'1 1.6
2018-Jan-25 13:57N 45°14' E 019°51'2 3.0
2018-Jan-25 13:14N 45°16' E 019°52'0 1.7
2018-Jan-25 13:00N 45°16' E 019°51'0 0.1
2018-Jan-25 12:02N 45°16' E 019°51'0 0.0
2018-Jan-25 11:50N 45°16' E 019°51'0 0.0
2018-Jan-25 11:26N 45°16' E 019°51'0 0.0
2018-Jan-25 10:57N 45°16' E 019°51'1 1.4
2018-Jan-25 10:21N 45°15' E 019°51'0 0.0
2018-Jan-25 09:57N 45°15' E 019°51'1 2.1
2018-Jan-25 09:24N 45°14' E 019°51'1 1.1
2018-Jan-25 08:19N 45°15' E 019°51'0 0.0
2018-Jan-25 07:59N 45°15' E 019°51'0 0.5
2018-Jan-25 07:23N 45°15' E 019°51'2 5.6
2018-Jan-25 07:00N 45°13' E 019°50'2 3.9
2018-Jan-25 06:30N 45°13' E 019°47'4 8.5
2018-Jan-25 06:00N 45°14' E 019°41'0 0.3
2018-Jan-25 05:25N 45°14' E 019°41'0 0.0
2018-Jan-25 04:55N 45°14' E 019°41'0 0.0
2018-Jan-25 04:28N 45°14' E 019°41'0 0.0
2018-Jan-25 03:58N 45°14' E 019°41'0 0.0
2018-Jan-25 03:25N 45°14' E 019°41'0 0.0
2018-Jan-25 02:58N 45°14' E 019°41'0 0.0
2018-Jan-25 02:25N 45°14' E 019°41'0 0.0
2018-Jan-25 01:58N 45°14' E 019°41'0 0.0
2018-Jan-25 01:28N 45°14' E 019°41'0 0.0
2018-Jan-25 00:58N 45°14' E 019°41'0 0.0
2018-Jan-25 00:29N 45°14' E 019°41'0 0.0
2018-Jan-24 23:43N 45°14' E 019°41'0 0.0
2018-Jan-24 23:22N 45°14' E 019°41'0 0.0
2018-Jan-24 22:51N 45°14' E 019°41'0 0.0
2018-Jan-24 22:29N 45°14' E 019°41'0 0.0
2018-Jan-24 21:28N 45°14' E 019°41'0 0.0
2018-Jan-24 20:55N 45°14' E 019°41'0 0.0
2018-Jan-24 20:28N 45°14' E 019°41'0 0.0
2018-Jan-24 19:46N 45°14' E 019°41'0 0.0
2018-Jan-24 19:07N 45°14' E 019°41'0 0.0
2018-Jan-24 19:00N 45°14' E 019°41'0 0.0
2018-Jan-24 18:17N 45°14' E 019°41'0 0.0
2018-Jan-24 17:52N 45°14' E 019°41'0 0.0
2018-Jan-24 17:28N 45°14' E 019°41'0 0.8
2018-Jan-24 17:01N 45°13' E 019°40'4 8.3
2018-Jan-24 16:30N 45°13' E 019°34'3 6.6
2018-Jan-24 15:59N 45°15' E 019°30'4 9.1
2018-Jan-24 15:31N 45°14' E 019°24'5 9.0
2018-Jan-24 15:00N 45°14' E 019°18'5 9.4
2018-Jan-24 14:31N 45°16' E 019°11'4 8.9
2018-Jan-24 14:01N 45°18' E 019°06'4 7.2
2018-Jan-24 13:29N 45°21' E 019°02'2 4.4
2018-Jan-24 12:59N 45°22' E 018°59'0 0.1
2018-Jan-24 12:25N 45°22' E 018°59'0 0.5
2018-Jan-24 11:58N 45°22' E 018°59'0 0.0
2018-Jan-24 11:28N 45°22' E 018°59'0 0.0
2018-Jan-24 10:58N 45°22' E 018°59'0 0.0
2018-Jan-24 10:28N 45°22' E 018°59'0 0.0
2018-Jan-24 09:58N 45°22' E 018°59'0 0.0
2018-Jan-24 09:28N 45°22' E 018°59'0 0.0
2018-Jan-24 08:58N 45°22' E 018°59'0 0.0
2018-Jan-24 08:28N 45°22' E 018°59'0 0.0
2018-Jan-24 07:58N 45°22' E 018°59'0 0.0
2018-Jan-24 07:28N 45°22' E 018°59'0 0.0
2018-Jan-24 06:58N 45°22' E 018°59'0 0.0
2018-Jan-24 06:28N 45°22' E 018°59'0 0.0
2018-Jan-24 05:58N 45°22' E 018°59'0 0.0
2018-Jan-24 05:28N 45°22' E 018°59'0 0.0
2018-Jan-24 04:58N 45°22' E 018°59'0 0.0
2018-Jan-24 04:28N 45°22' E 018°59'0 0.0
2018-Jan-24 03:58N 45°22' E 018°59'0 0.0
2018-Jan-24 03:25N 45°22' E 018°59'0 0.0
2018-Jan-24 02:58N 45°22' E 018°59'0 0.0
2018-Jan-24 02:28N 45°22' E 018°59'0 0.0
2018-Jan-24 01:58N 45°22' E 018°59'0 0.0
2018-Jan-24 01:28N 45°22' E 018°59'0 0.0
2018-Jan-24 00:58N 45°22' E 018°59'0 0.0
2018-Jan-24 00:28N 45°22' E 018°59'0 0.0
2018-Jan-23 23:58N 45°22' E 018°59'0 0.0
2018-Jan-23 23:28N 45°22' E 018°59'0 0.0
2018-Jan-23 22:58N 45°22' E 018°59'0 0.0
2018-Jan-23 22:28N 45°22' E 018°59'0 0.0
2018-Jan-23 21:58N 45°22' E 018°59'0 0.0
2018-Jan-23 21:28N 45°22' E 018°59'0 0.0
2018-Jan-23 20:58N 45°22' E 018°59'0 0.0
2018-Jan-23 20:28N 45°22' E 018°59'0 0.0
2018-Jan-23 19:58N 45°22' E 018°59'0 0.0
2018-Jan-23 19:28N 45°22' E 018°59'0 0.0
2018-Jan-23 18:58N 45°22' E 018°59'0 0.0
2018-Jan-23 18:25N 45°22' E 018°59'0 0.0
2018-Jan-23 17:58N 45°22' E 018°59'0 0.0
2018-Jan-23 17:28N 45°22' E 018°59'0 0.0
2018-Jan-23 16:58N 45°22' E 018°59'0 0.0
2018-Jan-23 16:28N 45°22' E 018°59'0 0.0
2018-Jan-23 15:55N 45°22' E 018°59'0 0.0
2018-Jan-23 15:25N 45°22' E 018°59'0 0.0
2018-Jan-23 14:58N 45°22' E 018°59'0 0.0
2018-Jan-23 14:07N 45°22' E 018°59'0 0.0
2018-Jan-23 13:49N 45°22' E 018°59'0 0.0
2018-Jan-23 13:28N 45°22' E 018°59'0 0.0
2018-Jan-23 12:55N 45°22' E 018°59'0 0.0
2018-Jan-23 12:28N 45°22' E 018°59'0 0.0
2018-Jan-23 11:55N 45°22' E 018°59'0 0.0
2018-Jan-23 11:28N 45°22' E 018°59'0 0.0
2018-Jan-23 10:58N 45°22' E 018°59'0 0.0
2018-Jan-23 10:28N 45°22' E 018°59'0 0.0
2018-Jan-23 09:58N 45°22' E 018°59'0 0.0
2018-Jan-23 09:28N 45°22' E 018°59'0 0.0
2018-Jan-23 08:58N 45°22' E 018°59'0 0.0
2018-Jan-23 08:28N 45°22' E 018°59'0 0.0
2018-Jan-23 07:58N 45°22' E 018°59'0 0.0
2018-Jan-23 07:28N 45°22' E 018°59'0 0.0
2018-Jan-23 06:58N 45°22' E 018°59'0 0.0
2018-Jan-23 06:31N 45°22' E 018°59'0 0.0
2018-Jan-23 06:01N 45°22' E 018°59'0 0.0
2018-Jan-23 05:31N 45°22' E 018°59'0 0.0
2018-Jan-23 05:01N 45°22' E 018°59'0 0.0
2018-Jan-23 04:31N 45°22' E 018°59'0 0.0
2018-Jan-23 04:01N 45°22' E 018°59'0 0.0
2018-Jan-23 03:31N 45°22' E 018°59'0 0.0
2018-Jan-23 03:01N 45°22' E 018°59'0 0.0
2018-Jan-23 02:31N 45°22' E 018°59'0 0.0
2018-Jan-23 02:01N 45°22' E 018°59'0 0.0
2018-Jan-23 01:31N 45°22' E 018°59'0 0.0
2018-Jan-23 01:01N 45°22' E 018°59'0 0.0
2018-Jan-23 00:31N 45°22' E 018°59'0 0.0
2018-Jan-23 00:01N 45°22' E 018°59'0 0.0
2018-Jan-22 23:31N 45°22' E 018°59'0 0.0
2018-Jan-22 23:01N 45°22' E 018°59'0 0.0
2018-Jan-22 22:31N 45°22' E 018°59'0 0.0
2018-Jan-22 22:01N 45°22' E 018°59'0 0.0
2018-Jan-22 21:31N 45°22' E 018°59'0 0.0
2018-Jan-22 21:01N 45°22' E 018°59'0 0.0
2018-Jan-22 20:31N 45°22' E 018°59'0 0.0
2018-Jan-22 20:01N 45°22' E 018°59'0 0.0
2018-Jan-22 19:31N 45°22' E 018°59'0 0.0
2018-Jan-22 19:01N 45°22' E 018°59'0 0.0
2018-Jan-22 18:30N 45°22' E 018°59'0 0.0
2018-Jan-22 18:00N 45°22' E 018°59'0 0.5
2018-Jan-22 17:31N 45°22' E 018°59'1 2.2
2018-Jan-22 17:00N 45°23' E 018°58'4 7.2
2018-Jan-22 16:31N 45°25' E 019°02'4 8.2
2018-Jan-22 16:01N 45°29' E 018°60'4 8.3
2018-Jan-22 15:31N 45°30' E 019°06'4 7.6
2018-Jan-22 15:01N 45°32' E 019°02'4 7.2
2018-Jan-22 14:30N 45°32' E 018°57'4 7.4
2018-Jan-22 14:01N 45°35' E 018°54'4 8.1
2018-Jan-22 13:30N 45°39' E 018°57'4 7.3
2018-Jan-22 13:00N 45°42' E 018°55'5 9.6
2018-Jan-22 12:31N 45°47' E 018°53'4 8.2
2018-Jan-22 12:00N 45°51' E 018°51'5 8.9
2018-Jan-22 11:30N 45°55' E 018°48'6 9.5
2018-Jan-22 10:54N 45°59' E 018°43'2 4.0
2018-Jan-22 10:22N 46°01' E 018°41'0 0.0
2018-Jan-22 09:43N 46°01' E 018°41'0 0.0
2018-Jan-22 09:18N 46°01' E 018°41'0 0.0
2018-Jan-22 08:46N 46°01' E 018°41'0 0.0
2018-Jan-22 08:23N 46°01' E 018°41'0 0.0
2018-Jan-22 07:58N 46°01' E 018°41'0 0.0
2018-Jan-22 07:08N 46°01' E 018°41'0 0.0
2018-Jan-22 07:00N 46°01' E 018°41'75 1.7
2018-Jan-20 10:59N 47°15' E 018°55'5 9.8
2018-Jan-20 10:30N 47°20' E 018°57'4 8.6
2018-Jan-20 09:59N 47°23' E 019°00'3 6.9
2018-Jan-20 09:30N 47°26' E 019°03'1 1.3
2018-Jan-20 09:00N 47°27' E 019°03'0 0.4
2018-Jan-20 08:11N 47°27' E 019°04'0 0.0
2018-Jan-20 07:59N 47°27' E 019°04'0 0.0
2018-Jan-20 07:17N 47°27' E 019°04'0 0.0
2018-Jan-20 06:41N 47°27' E 019°04'0 0.0
2018-Jan-20 06:17N 47°27' E 019°04'0 0.0
2018-Jan-20 05:53N 47°27' E 019°04'0 0.0
2018-Jan-20 05:29N 47°27' E 019°04'0 0.0
2018-Jan-20 04:53N 47°27' E 019°04'0 0.0
2018-Jan-20 04:29N 47°27' E 019°04'0 0.0
2018-Jan-20 03:53N 47°27' E 019°04'0 0.0
2018-Jan-20 03:29N 47°27' E 019°04'0 0.0
2018-Jan-20 02:59N 47°27' E 019°04'0 0.0
2018-Jan-20 02:29N 47°27' E 019°04'0 0.0
2018-Jan-20 01:53N 47°27' E 019°04'0 0.0
2018-Jan-20 01:29N 47°27' E 019°04'0 0.0
2018-Jan-20 00:59N 47°27' E 019°04'0 0.0
2018-Jan-20 00:29N 47°27' E 019°04'0 0.0
2018-Jan-19 23:59N 47°27' E 019°04'0 0.0
2018-Jan-19 23:29N 47°27' E 019°04'0 0.0
2018-Jan-19 22:53N 47°27' E 019°04'0 0.0
2018-Jan-19 22:29N 47°27' E 019°04'0 0.1
2018-Jan-19 21:53N 47°27' E 019°04'0 0.0
2018-Jan-19 21:13N 47°27' E 019°04'0 0.0
2018-Jan-19 20:53N 47°27' E 019°04'0 0.0
2018-Jan-19 20:25N 47°27' E 019°04'0 0.0
2018-Jan-19 19:44N 47°27' E 019°04'0 0.0
2018-Jan-19 19:23N 47°27' E 019°04'0 0.0
2018-Jan-19 18:59N 47°27' E 019°04'0 0.0
2018-Jan-19 18:29N 47°27' E 019°04'0 0.0
2018-Jan-19 17:47N 47°27' E 019°04'0 0.0
2018-Jan-19 17:11N 47°27' E 019°04'0 0.0
2018-Jan-19 16:59N 47°27' E 019°04'0 0.0
2018-Jan-19 16:23N 47°27' E 019°04'0 0.0
2018-Jan-19 15:55N 47°27' E 019°04'0 0.1
2018-Jan-19 15:23N 47°27' E 019°04'0 0.0
2018-Jan-19 14:53N 47°27' E 019°04'0 0.0
2018-Jan-19 14:26N 47°27' E 019°04'0 0.1
2018-Jan-19 13:43N 47°27' E 019°04'0 0.0
2018-Jan-19 12:43N 47°27' E 019°04'0 0.0
2018-Jan-19 12:22N 47°27' E 019°04'0 0.0
2018-Jan-19 11:58N 47°27' E 019°04'0 0.0
2018-Jan-19 11:19N 47°27' E 019°04'0 0.2
2018-Jan-19 10:55N 47°27' E 019°04'0 0.0
2018-Jan-19 10:25N 47°27' E 019°04'0 0.0
2018-Jan-19 09:58N 47°27' E 019°04'0 0.0
2018-Jan-19 09:25N 47°27' E 019°04'0 0.0
2018-Jan-19 08:49N 47°27' E 019°04'0 0.0
2018-Jan-19 08:28N 47°27' E 019°04'0 0.0
2018-Jan-19 07:58N 47°27' E 019°04'0 0.0
2018-Jan-19 07:22N 47°27' E 019°04'0 0.0
2018-Jan-19 06:52N 47°27' E 019°04'0 0.0
2018-Jan-19 06:22N 47°27' E 019°04'0 0.0
2018-Jan-19 05:55N 47°27' E 019°04'0 0.0
2018-Jan-19 05:19N 47°27' E 019°04'0 0.0
2018-Jan-19 04:55N 47°27' E 019°04'0 0.0
2018-Jan-19 04:22N 47°27' E 019°04'0 0.0
2018-Jan-19 03:58N 47°27' E 019°04'0 0.0
2018-Jan-19 03:25N 47°27' E 019°04'0 0.0
2018-Jan-19 02:52N 47°27' E 019°04'0 0.0
2018-Jan-19 02:25N 47°27' E 019°04'0 0.0
2018-Jan-19 01:58N 47°27' E 019°04'0 0.0
2018-Jan-19 01:25N 47°27' E 019°04'0 0.0
2018-Jan-19 00:52N 47°27' E 019°04'0 0.0
2018-Jan-19 00:22N 47°27' E 019°04'0 0.0
2018-Jan-18 22:07N 47°27' E 019°04'0 0.0
2018-Jan-18 21:55N 47°27' E 019°04'0 0.0
2018-Jan-18 21:25N 47°27' E 019°04'0 0.0
2018-Jan-18 20:55N 47°27' E 019°04'0 0.0
2018-Jan-18 20:25N 47°27' E 019°04'0 0.0
2018-Jan-18 19:55N 47°27' E 019°04'0 0.0
2018-Jan-18 19:28N 47°27' E 019°04'0 0.0
2018-Jan-18 18:55N 47°27' E 019°04'0 0.0
2018-Jan-18 18:28N 47°27' E 019°04'0 0.0
2018-Jan-18 17:58N 47°27' E 019°04'0 0.0
2018-Jan-18 17:10N 47°27' E 019°04'0 0.0
2018-Jan-18 16:49N 47°27' E 019°04'0 0.0
2018-Jan-18 16:28N 47°27' E 019°04'0 0.0
2018-Jan-18 15:55N 47°27' E 019°04'0 0.0
2018-Jan-18 15:28N 47°27' E 019°04'0 0.0
2018-Jan-18 14:55N 47°27' E 019°04'0 0.0
2018-Jan-18 14:28N 47°27' E 019°04'0 0.0
2018-Jan-18 13:58N 47°27' E 019°04'0 0.0
2018-Jan-18 13:28N 47°27' E 019°04'0 0.0
2018-Jan-18 12:49N 47°27' E 019°04'0 0.0
2018-Jan-18 12:30N 47°27' E 019°04'0 0.0
2018-Jan-18 12:00N 47°27' E 019°04'1 1.8
2018-Jan-18 11:30N 47°26' E 019°03'0 0.3
2018-Jan-18 11:00N 47°26' E 019°03'2 4.5
2018-Jan-18 10:30N 47°24' E 019°02'3 5.5
2018-Jan-18 10:00N 47°23' E 018°58'3 4.9
2018-Jan-18 09:29N 47°20' E 018°57'3 5.0
2018-Jan-18 08:49N 47°17' E 018°55'1 4.5
2018-Jan-18 08:30N 47°16' E 018°55'  

Dump ship's entire track history